createdAt,value
2016-07-20T00:00:33.633Z,54.60
2016-07-20T00:01:28.859Z,54.60
2016-07-20T00:02:27.927Z,is
2016-07-20T00:03:28.727Z,54.70
2016-07-20T00:04:28.119Z,54.80
2016-07-20T00:05:28.064Z,54.90
2016-07-20T00:06:27.955Z,54.90
2016-07-20T00:07:27.730Z,54.80
2016-07-20T00:08:27.637Z,54.70
2016-07-20T00:09:26.491Z,54.80
2016-07-20T00:10:26.167Z,54.10
2016-07-20T00:11:22.861Z,54.80
2016-07-20T00:12:12.340Z,54.90
2016-07-20T00:13:28.045Z,54.90
2016-07-20T00:14:32.958Z,54.70
2016-07-20T00:15:32.993Z,54.60
2016-07-20T00:16:28.726Z,54.80
2016-07-20T00:17:27.610Z,54.70
2016-07-20T00:18:32.139Z,54.80
2016-07-20T00:19:27.549Z,54.80
2016-07-20T00:20:41.485Z,54.60
2016-07-20T00:21:26.127Z,54.60
2016-07-20T00:22:33.398Z,54.70
2016-07-20T00:23:26.915Z,54.80
2016-07-20T00:24:29.279Z,54.70
2016-07-20T00:25:27.643Z,54.60
2016-07-20T00:26:27.962Z,54.80
2016-07-20T00:27:33.058Z,54.70
2016-07-20T00:28:27.748Z,54.70
2016-07-20T00:29:22.729Z,54.70
2016-07-20T00:30:26.892Z,is
2016-07-20T00:31:20.997Z,54.70
2016-07-20T00:32:20.479Z,54.70
2016-07-20T00:33:16.033Z,54.70
2016-07-20T00:34:24.671Z,54.70
2016-07-20T00:35:14.802Z,54.80
2016-07-20T00:36:16.418Z,53.90
2016-07-20T00:37:16.428Z,54.70
2016-07-20T00:38:22.341Z,54.90
2016-07-20T00:39:28.257Z,55.00
2016-07-20T00:40:26.923Z,55.00
2016-07-20T00:41:27.624Z,55.00
2016-07-20T00:42:27.050Z,is
2016-07-20T00:43:31.499Z,55.00
2016-07-20T00:44:22.191Z,54.90
2016-07-20T00:45:13.350Z,55.10
2016-07-20T00:46:28.480Z,is
2016-07-20T00:47:28.339Z,55.00
2016-07-20T00:48:33.738Z,55.00
2016-07-20T00:49:29.732Z,54.40
2016-07-20T00:50:20.866Z,55.10
2016-07-20T00:51:27.646Z,55.20
2016-07-20T00:52:28.154Z,55.10
2016-07-20T00:53:27.468Z,55.10
2016-07-20T00:54:28.383Z,55.10
2016-07-20T00:55:33.619Z,55.10
2016-07-20T00:56:23.219Z,55.20
2016-07-20T00:57:29.583Z,55.10
2016-07-20T00:58:29.094Z,55.10
2016-07-20T00:59:28.656Z,55.10
2016-07-20T01:00:28.715Z,55.10
2016-07-20T01:01:27.919Z,55.10
2016-07-20T01:02:25.878Z,55.10
2016-07-20T01:03:27.398Z,55.10
2016-07-20T01:04:28.551Z,55.20
2016-07-20T01:05:13.045Z,55.20
2016-07-20T01:06:27.706Z,55.20
2016-07-20T01:07:12.927Z,55.20
2016-07-20T01:08:28.439Z,55.20
2016-07-20T01:09:27.791Z,55.30
2016-07-20T01:10:26.908Z,55.40
2016-07-20T01:11:27.730Z,55.30
2016-07-20T01:12:33.367Z,55.30
2016-07-20T01:13:27.581Z,55.20
2016-07-20T01:14:31.787Z,55.30
2016-07-20T01:15:27.656Z,55.40
2016-07-20T01:16:28.395Z,55.40
2016-07-20T01:17:28.726Z,55.30
2016-07-20T01:18:22.154Z,55.30
2016-07-20T01:19:32.636Z,55.30
2016-07-20T01:20:28.242Z,55.30
2016-07-20T01:21:32.425Z,55.20
2016-07-20T01:22:33.745Z,55.20
2016-07-20T01:23:26.233Z,55.10
2016-07-20T01:24:38.378Z,55.20
2016-07-20T01:25:27.420Z,55.20
2016-07-20T01:26:29.042Z,55.20
2016-07-20T01:27:32.741Z,55.30
2016-07-20T01:28:27.837Z,55.30
2016-07-20T01:29:29.104Z,55.30
2016-07-20T01:30:33.175Z,55.40
2016-07-20T01:31:33.612Z,55.30
2016-07-20T01:32:33.343Z,55.30
2016-07-20T01:33:33.331Z,55.30
2016-07-20T01:34:34.272Z,54.60
2016-07-20T01:35:27.678Z,55.50
2016-07-20T01:36:27.772Z,55.10
2016-07-20T01:37:32.146Z,55.20
2016-07-20T01:38:27.603Z,55.20
2016-07-20T01:39:22.871Z,55.30
2016-07-20T01:40:17.729Z,55.10
2016-07-20T01:41:26.573Z,55.30
2016-07-20T01:42:15.686Z,55.40
2016-07-20T01:43:14.890Z,55.40
2016-07-20T01:44:21.053Z,55.50
2016-07-20T01:45:13.664Z,55.50
2016-07-20T01:46:25.854Z,55.30
2016-07-20T01:47:21.761Z,55.30
2016-07-20T01:48:33.574Z,55.30
2016-07-20T01:49:28.077Z,55.50
2016-07-20T01:50:27.867Z,55.20
2016-07-20T01:51:27.721Z,55.50
2016-07-20T01:52:12.262Z,55.40
2016-07-20T01:53:28.914Z,55.40
2016-07-20T01:54:24.436Z,55.20
2016-07-20T01:55:34.591Z,55.20
2016-07-20T01:56:30.289Z,55.20
2016-07-20T01:57:27.816Z,55.20
2016-07-20T01:58:38.649Z,55.20
2016-07-20T01:59:26.233Z,55.20
2016-07-20T02:00:43.192Z,55.20
2016-07-20T02:01:31.604Z,55.20
2016-07-20T02:02:29.716Z,55.20
2016-07-20T02:03:27.989Z,55.20
2016-07-20T02:04:28.931Z,55.10
2016-07-20T02:05:27.181Z,55.30
2016-07-20T02:06:29.541Z,55.20
2016-07-20T02:07:43.373Z,55.30
2016-07-20T02:08:27.858Z,55.40
2016-07-20T02:09:42.622Z,55.40
2016-07-20T02:10:26.669Z,55.30
2016-07-20T02:11:21.380Z,55.50
2016-07-20T02:12:28.434Z,55.40
2016-07-20T02:13:41.060Z,55.40
2016-07-20T02:14:28.325Z,55.40
2016-07-20T02:15:33.943Z,55.30
2016-07-20T02:16:28.809Z,55.30
2016-07-20T02:17:30.863Z,55.40
2016-07-20T02:18:28.625Z,55.20
2016-07-20T02:19:29.141Z,55.30
2016-07-20T02:20:26.869Z,55.30
2016-07-20T02:21:31.087Z,55.20
2016-07-20T02:22:29.347Z,55.20
2016-07-20T02:23:23.453Z,55.20
2016-07-20T02:24:26.659Z,55.20
2016-07-20T02:25:29.389Z,55.20
2016-07-20T02:26:28.065Z,55.20
2016-07-20T02:27:32.417Z,is
2016-07-20T02:28:29.496Z,55.20
2016-07-20T02:29:32.848Z,55.20
2016-07-20T02:30:28.146Z,55.10
2016-07-20T02:31:32.396Z,55.20
2016-07-20T02:32:29.001Z,55.20
2016-07-20T02:33:22.246Z,55.20
2016-07-20T02:34:34.441Z,55.20
2016-07-20T02:35:28.479Z,55.30
2016-07-20T02:36:23.762Z,55.30
2016-07-20T02:37:27.937Z,55.30
2016-07-20T02:38:26.550Z,55.30
2016-07-20T02:39:28.051Z,is
2016-07-20T02:40:28.447Z,is
2016-07-20T02:41:32.271Z,55.40
2016-07-20T02:42:31.454Z,55.50
2016-07-20T02:43:32.575Z,55.30
2016-07-20T02:44:34.185Z,55.30
2016-07-20T02:45:33.793Z,55.40
2016-07-20T02:46:21.521Z,55.30
2016-07-20T02:47:21.783Z,55.40
2016-07-20T02:48:20.231Z,55.40
2016-07-20T02:49:21.641Z,55.40
2016-07-20T02:50:16.722Z,55.30
2016-07-20T02:51:17.406Z,55.20
2016-07-20T02:52:32.610Z,55.30
2016-07-20T02:53:27.954Z,54.70
2016-07-20T02:54:34.411Z,55.40
2016-07-20T02:55:32.630Z,55.50
2016-07-20T02:56:28.469Z,55.40
2016-07-20T02:57:28.909Z,55.60
2016-07-20T02:58:28.450Z,55.50
2016-07-20T02:59:43.658Z,55.40
2016-07-20T03:00:16.127Z,55.30
2016-07-20T03:01:31.706Z,55.30
2016-07-20T03:02:31.366Z,55.00
2016-07-20T03:03:41.476Z,55.20
2016-07-20T03:04:27.830Z,55.10
2016-07-20T03:05:33.653Z,55.00
2016-07-20T03:06:27.180Z,55.10
2016-07-20T03:07:28.737Z,55.10
2016-07-20T03:08:33.684Z,55.10
2016-07-20T03:09:27.849Z,55.10
2016-07-20T03:10:29.744Z,55.20
2016-07-20T03:11:25.761Z,55.10
2016-07-20T03:12:26.087Z,55.00
2016-07-20T03:13:34.147Z,55.00
2016-07-20T03:14:34.742Z,55.10
2016-07-20T03:15:27.726Z,55.00
2016-07-20T03:16:28.035Z,55.10
2016-07-20T03:17:28.752Z,55.10
2016-07-20T03:18:32.551Z,55.20
2016-07-20T03:19:28.011Z,55.10
2016-07-20T03:20:35.008Z,55.10
2016-07-20T03:21:42.126Z,55.00
2016-07-20T03:22:17.244Z,is
2016-07-20T03:23:29.890Z,55.00
2016-07-20T03:24:27.033Z,is
2016-07-20T03:25:28.416Z,55.00
2016-07-20T03:26:28.525Z,54.90
2016-07-20T03:27:27.526Z,54.90
2016-07-20T03:28:37.788Z,54.90
2016-07-20T03:29:27.976Z,54.90
2016-07-20T03:30:27.810Z,55.10
2016-07-20T03:31:28.356Z,55.10
2016-07-20T03:32:14.340Z,55.10
2016-07-20T03:33:28.036Z,55.10
2016-07-20T03:34:26.781Z,55.10
2016-07-20T03:35:42.685Z,55.10
2016-07-20T03:36:31.214Z,55.00
2016-07-20T03:37:33.481Z,54.90
2016-07-20T03:38:33.775Z,54.80
2016-07-20T03:39:27.819Z,54.90
2016-07-20T03:40:28.048Z,55.10
2016-07-20T03:41:31.533Z,55.00
2016-07-20T03:42:23.089Z,55.10
2016-07-20T03:43:34.138Z,55.10
2016-07-20T03:44:32.555Z,55.00
2016-07-20T03:45:26.897Z,55.00
2016-07-20T03:46:35.605Z,54.90
2016-07-20T03:47:32.375Z,54.90
2016-07-20T03:48:29.958Z,54.90
2016-07-20T03:49:21.769Z,is
2016-07-20T03:50:33.660Z,54.90
2016-07-20T03:51:22.036Z,54.80
2016-07-20T03:52:28.125Z,54.70
2016-07-20T03:53:22.006Z,54.90
2016-07-20T03:54:19.826Z,55.00
2016-07-20T03:55:22.706Z,54.90
2016-07-20T03:56:21.129Z,54.90
2016-07-20T03:57:13.431Z,54.90
2016-07-20T03:58:23.276Z,54.90
2016-07-20T03:59:21.629Z,54.90
2016-07-20T04:00:29.129Z,54.90
2016-07-20T04:01:33.654Z,54.80
2016-07-20T04:02:27.954Z,54.80
2016-07-20T04:03:32.304Z,54.70
2016-07-20T04:04:28.386Z,54.70
2016-07-20T04:05:31.303Z,55.20
2016-07-20T04:06:26.195Z,54.70
2016-07-20T04:07:27.168Z,54.70
2016-07-20T04:08:30.952Z,54.60
2016-07-20T04:09:28.545Z,54.50
2016-07-20T04:10:28.807Z,54.60
2016-07-20T04:11:33.888Z,54.60
2016-07-20T04:12:28.175Z,54.60
2016-07-20T04:13:12.184Z,54.60
2016-07-20T04:14:26.874Z,54.60
2016-07-20T04:15:29.048Z,54.60
2016-07-20T04:16:33.715Z,54.70
2016-07-20T04:17:33.703Z,54.80
2016-07-20T04:18:22.176Z,is
2016-07-20T04:19:27.433Z,54.90
2016-07-20T04:20:28.178Z,55.10
2016-07-20T04:21:26.544Z,55.20
2016-07-20T04:22:41.024Z,55.40
2016-07-20T04:23:30.477Z,55.30
2016-07-20T04:24:28.437Z,55.20
2016-07-20T04:25:32.006Z,55.20
2016-07-20T04:26:32.819Z,55.20
2016-07-20T04:27:33.015Z,is
2016-07-20T04:28:28.677Z,55.30
2016-07-20T04:29:27.874Z,55.30
2016-07-20T04:30:27.789Z,55.40
2016-07-20T04:31:27.911Z,55.20
2016-07-20T04:32:30.792Z,55.30
2016-07-20T04:33:29.158Z,55.60
2016-07-20T04:34:27.719Z,55.50
2016-07-20T04:35:22.163Z,55.70
2016-07-20T04:36:31.938Z,55.60
2016-07-20T04:37:25.020Z,55.70
2016-07-20T04:38:29.157Z,55.70
2016-07-20T04:39:21.047Z,55.80
2016-07-20T04:40:32.102Z,55.80
2016-07-20T04:41:34.828Z,55.70
2016-07-20T04:42:29.045Z,55.80
2016-07-20T04:43:28.866Z,55.70
2016-07-20T04:44:27.891Z,55.80
2016-07-20T04:45:28.430Z,55.80
2016-07-20T04:46:29.245Z,55.70
2016-07-20T04:47:28.140Z,55.70
2016-07-20T04:48:29.396Z,55.70
2016-07-20T04:49:22.159Z,is
2016-07-20T04:50:36.354Z,55.70
2016-07-20T04:51:28.712Z,55.80
2016-07-20T04:52:26.534Z,55.80
2016-07-20T04:53:22.824Z,55.80
2016-07-20T04:54:27.625Z,55.90
2016-07-20T04:55:27.488Z,is
2016-07-20T04:56:27.898Z,56.00
2016-07-20T04:57:43.044Z,56.00
2016-07-20T04:58:23.219Z,56.10
2016-07-20T04:59:14.659Z,56.30
2016-07-20T05:00:15.094Z,56.50
2016-07-20T05:01:25.230Z,56.60
2016-07-20T05:02:19.604Z,56.20
2016-07-20T05:03:21.466Z,56.20
2016-07-20T05:04:26.552Z,55.70
2016-07-20T05:05:12.624Z,56.20
2016-07-20T05:06:18.882Z,56.40
2016-07-20T05:07:12.209Z,56.30
2016-07-20T05:08:12.820Z,56.40
2016-07-20T05:09:23.655Z,56.20
2016-07-20T05:10:19.145Z,56.50
2016-07-20T05:11:20.390Z,56.70
2016-07-20T05:12:25.589Z,56.80
2016-07-20T05:13:15.785Z,56.70
2016-07-20T05:14:18.543Z,56.80
2016-07-20T05:15:43.147Z,56.70
2016-07-20T05:16:31.021Z,56.70
2016-07-20T05:17:33.968Z,56.80
2016-07-20T05:18:30.221Z,57.00
2016-07-20T05:19:39.715Z,56.90
2016-07-20T05:20:28.711Z,57.10
2016-07-20T05:21:29.429Z,56.90
2016-07-20T05:22:27.543Z,57.00
2016-07-20T05:23:27.838Z,57.20
2016-07-20T05:24:21.450Z,is
2016-07-20T05:25:32.599Z,is
2016-07-20T05:26:27.751Z,57.30
2016-07-20T05:27:28.183Z,57.30
2016-07-20T05:28:22.817Z,57.30
2016-07-20T05:29:27.173Z,57.30
2016-07-20T05:30:22.244Z,is
2016-07-20T05:31:32.338Z,57.40
2016-07-20T05:32:47.798Z,57.30
2016-07-20T05:33:21.622Z,is
2016-07-20T05:34:26.497Z,57.40
2016-07-20T05:35:27.717Z,57.30
2016-07-20T05:36:27.373Z,57.40
2016-07-20T05:37:28.809Z,57.30
2016-07-20T05:38:17.711Z,57.50
2016-07-20T05:39:23.238Z,57.50
2016-07-20T05:40:27.678Z,57.60
2016-07-20T05:41:22.672Z,57.50
2016-07-20T05:42:21.656Z,57.60
2016-07-20T05:43:28.435Z,57.60
2016-07-20T05:44:25.696Z,57.60
2016-07-20T05:45:25.695Z,57.60
2016-07-20T05:46:21.438Z,57.60
2016-07-20T05:47:17.185Z,57.80
2016-07-20T05:48:17.969Z,57.30
2016-07-20T05:49:22.007Z,56.90
2016-07-20T05:50:22.598Z,56.60
2016-07-20T05:51:18.443Z,56.40
2016-07-20T05:52:22.229Z,56.30
2016-07-20T05:53:20.044Z,56.00
2016-07-20T05:54:21.169Z,56.20
2016-07-20T05:55:19.829Z,55.90
2016-07-20T05:56:15.486Z,56.10
2016-07-20T05:57:26.349Z,56.00
2016-07-20T05:58:21.101Z,55.80
2016-07-20T05:59:23.019Z,55.60
2016-07-20T06:00:22.638Z,55.60
2016-07-20T06:01:28.418Z,55.50
2016-07-20T06:02:22.785Z,55.50
2016-07-20T06:03:22.551Z,is
2016-07-20T06:04:27.053Z,55.40
2016-07-20T06:05:21.265Z,55.40
2016-07-20T06:06:15.591Z,is
2016-07-20T06:07:18.191Z,54.90
2016-07-20T06:08:22.023Z,55.20
2016-07-20T06:09:19.668Z,55.20
2016-07-20T06:10:21.074Z,55.10
2016-07-20T06:11:22.052Z,55.00
2016-07-20T06:12:18.987Z,55.00
2016-07-20T06:13:25.539Z,54.90
2016-07-20T06:14:16.944Z,54.80
2016-07-20T06:15:22.974Z,54.80
2016-07-20T06:16:25.201Z,54.60
2016-07-20T06:17:25.956Z,54.70
2016-07-20T06:18:23.491Z,54.70
2016-07-20T06:19:29.395Z,54.60
2016-07-20T06:20:29.916Z,54.50
2016-07-20T06:21:27.315Z,54.60
2016-07-20T06:22:31.870Z,54.40
2016-07-20T06:23:35.644Z,54.40
2016-07-20T06:24:32.086Z,54.30
2016-07-20T06:25:29.973Z,54.30
2016-07-20T06:26:30.705Z,54.20
2016-07-20T06:27:27.387Z,54.30
2016-07-20T06:28:30.138Z,54.20
2016-07-20T06:29:25.949Z,54.20
2016-07-20T06:30:31.518Z,is
2016-07-20T06:31:28.114Z,54.30
2016-07-20T06:32:37.625Z,54.10
2016-07-20T06:33:27.970Z,54.00
2016-07-20T06:34:28.646Z,54.00
2016-07-20T06:35:33.890Z,53.90
2016-07-20T06:36:29.703Z,53.90
2016-07-20T06:37:46.698Z,53.90
2016-07-20T06:38:32.048Z,53.90
2016-07-20T06:39:22.112Z,is
2016-07-20T06:40:32.278Z,53.90
2016-07-20T06:41:21.647Z,is
2016-07-20T06:42:22.738Z,53.70
2016-07-20T06:43:23.558Z,53.70
2016-07-20T06:44:22.698Z,is
2016-07-20T06:45:27.185Z,53.60
2016-07-20T06:46:27.756Z,53.60
2016-07-20T06:47:27.900Z,53.50
2016-07-20T06:48:20.659Z,53.50
2016-07-20T06:49:21.468Z,53.70
2016-07-20T06:50:21.668Z,53.50
2016-07-20T06:51:26.801Z,53.50
2016-07-20T06:52:26.409Z,53.40
2016-07-20T06:53:27.417Z,53.50
2016-07-20T06:54:49.959Z,53.40
2016-07-20T06:55:28.030Z,53.40
2016-07-20T06:56:28.701Z,53.40
2016-07-20T06:57:35.962Z,53.40
2016-07-20T06:58:29.438Z,53.40
2016-07-20T06:59:28.837Z,53.40
2016-07-20T07:00:23.779Z,is
2016-07-20T07:01:26.187Z,53.20
2016-07-20T07:02:27.781Z,53.20
2016-07-20T07:03:26.626Z,53.20
2016-07-20T07:04:32.397Z,53.10
2016-07-20T07:05:27.248Z,53.00
2016-07-20T07:06:27.880Z,53.00
2016-07-20T07:07:28.041Z,53.00
2016-07-20T07:08:32.370Z,52.90
2016-07-20T07:09:27.948Z,52.80
2016-07-20T07:10:25.026Z,53.00
2016-07-20T07:11:22.537Z,52.80
2016-07-20T07:12:26.880Z,53.00
2016-07-20T07:13:28.510Z,52.90
2016-07-20T07:14:21.389Z,52.80
2016-07-20T07:15:32.219Z,52.90
2016-07-20T07:16:28.525Z,52.90
2016-07-20T07:17:27.029Z,52.90
2016-07-20T07:18:17.498Z,52.90
2016-07-20T07:19:27.876Z,52.90
2016-07-20T07:20:33.531Z,52.90
2016-07-20T07:21:27.911Z,53.00
2016-07-20T07:22:21.772Z,is
2016-07-20T07:23:26.692Z,52.90
2016-07-20T07:24:30.981Z,53.00
2016-07-20T07:25:28.007Z,53.00
2016-07-20T07:26:23.427Z,52.90
2016-07-20T07:27:13.567Z,53.00
2016-07-20T07:28:27.742Z,53.00
2016-07-20T07:29:27.941Z,52.90
2016-07-20T07:30:28.006Z,53.00
2016-07-20T07:31:27.439Z,52.90
2016-07-20T07:32:22.377Z,52.90
2016-07-20T07:33:27.330Z,53.00
2016-07-20T07:34:26.222Z,52.90
2016-07-20T07:35:21.718Z,53.00
2016-07-20T07:36:28.133Z,53.00
2016-07-20T07:37:27.408Z,53.00
2016-07-20T07:38:22.360Z,52.90
2016-07-20T07:39:37.528Z,53.00
2016-07-20T07:40:19.958Z,is
2016-07-20T07:41:28.663Z,52.90
2016-07-20T07:42:26.398Z,53.00
2016-07-20T07:43:33.334Z,52.90
2016-07-20T07:44:25.728Z,52.90
2016-07-20T07:45:26.257Z,53.10
2016-07-20T07:46:29.438Z,53.00
2016-07-20T07:47:29.945Z,53.00
2016-07-20T07:48:28.545Z,53.00
2016-07-20T07:49:43.468Z,53.00
2016-07-20T07:50:19.655Z,53.00
2016-07-20T07:51:24.309Z,53.00
2016-07-20T07:52:32.473Z,53.00
2016-07-20T07:53:35.124Z,53.00
2016-07-20T07:54:28.606Z,53.20
2016-07-20T07:55:15.937Z,53.00
2016-07-20T07:56:37.617Z,53.00
2016-07-20T07:57:46.754Z,53.00
2016-07-20T07:58:17.663Z,53.00
2016-07-20T07:59:31.542Z,53.10
2016-07-20T08:00:51.603Z,53.00
2016-07-20T08:01:15.414Z,53.00
2016-07-20T08:02:20.079Z,53.10
2016-07-20T08:03:26.915Z,53.00
2016-07-20T08:04:46.063Z,52.90
2016-07-20T08:05:15.024Z,52.90
2016-07-20T08:06:18.657Z,52.80
2016-07-20T08:07:47.802Z,52.80
2016-07-20T08:08:16.522Z,52.90
2016-07-20T08:09:17.232Z,52.80
2016-07-20T08:10:16.305Z,52.90
2016-07-20T08:11:29.859Z,52.80
2016-07-20T08:12:16.711Z,52.70
2016-07-20T08:13:16.443Z,52.80
2016-07-20T08:14:16.649Z,52.70
2016-07-20T08:15:18.088Z,52.80
2016-07-20T08:16:42.217Z,52.70
2016-07-20T08:17:17.509Z,52.70
2016-07-20T08:18:15.332Z,52.60
2016-07-20T08:19:17.575Z,52.70
2016-07-20T08:20:17.848Z,52.70
2016-07-20T08:21:16.722Z,52.60
2016-07-20T08:22:16.642Z,52.60
2016-07-20T08:23:27.869Z,52.60
2016-07-20T08:24:16.913Z,52.80
2016-07-20T08:25:26.457Z,52.60
2016-07-20T08:26:15.267Z,52.60
2016-07-20T08:27:32.123Z,52.70
2016-07-20T08:28:17.840Z,52.60
2016-07-20T08:29:14.783Z,52.60
2016-07-20T08:30:14.909Z,52.50
2016-07-20T08:31:16.021Z,52.50
2016-07-20T08:32:15.319Z,is
2016-07-20T08:33:27.725Z,52.60
2016-07-20T08:34:15.427Z,52.60
2016-07-20T08:35:16.531Z,52.50
2016-07-20T08:36:17.058Z,52.50
2016-07-20T08:37:16.284Z,52.50
2016-07-20T08:38:16.473Z,52.50
2016-07-20T08:39:20.183Z,52.50
2016-07-20T08:40:15.130Z,52.50
2016-07-20T08:41:16.911Z,52.50
2016-07-20T08:42:15.395Z,52.70
2016-07-20T08:43:13.155Z,is
2016-07-20T08:44:16.387Z,52.50
2016-07-20T08:45:15.306Z,52.50
2016-07-20T08:46:14.894Z,52.40
2016-07-20T08:47:14.977Z,52.40
2016-07-20T08:48:14.971Z,52.40
2016-07-20T08:49:15.291Z,52.40
2016-07-20T08:50:15.668Z,52.40
2016-07-20T08:51:15.208Z,52.40
2016-07-20T08:52:15.095Z,52.40
2016-07-20T08:53:15.720Z,52.40
2016-07-20T08:54:17.089Z,52.40
2016-07-20T08:55:15.626Z,52.30
2016-07-20T08:56:16.541Z,52.40
2016-07-20T08:57:13.313Z,52.30
2016-07-20T08:58:13.188Z,52.30
2016-07-20T08:59:13.554Z,52.20
2016-07-20T09:00:18.908Z,52.10
2016-07-20T09:01:12.892Z,52.30
2016-07-20T09:02:19.860Z,52.20
2016-07-20T09:03:17.402Z,52.10
2016-07-20T09:04:29.341Z,52.20
2016-07-20T09:05:20.574Z,52.20
2016-07-20T09:06:34.182Z,52.10
2016-07-20T09:07:22.068Z,52.10
2016-07-20T09:08:26.321Z,52.00
2016-07-20T09:09:22.780Z,52.40
2016-07-20T09:10:14.992Z,52.10
2016-07-20T09:11:26.809Z,52.10
2016-07-20T09:12:22.199Z,52.00
2016-07-20T09:13:31.452Z,52.00
2016-07-20T09:14:13.609Z,52.00
2016-07-20T09:15:15.881Z,is
2016-07-20T09:16:31.896Z,52.00
2016-07-20T09:17:44.893Z,51.80
2016-07-20T09:18:26.255Z,51.80
2016-07-20T09:19:26.496Z,51.80
2016-07-20T09:20:26.148Z,52.00
2016-07-20T09:21:24.343Z,51.80
2016-07-20T09:22:25.721Z,51.80
2016-07-20T09:23:29.485Z,51.80
2016-07-20T09:24:23.479Z,51.90
2016-07-20T09:25:15.403Z,51.90
2016-07-20T09:26:20.702Z,is
2016-07-20T09:27:21.486Z,51.60
2016-07-20T09:28:25.607Z,51.90
2016-07-20T09:29:26.255Z,51.80
2016-07-20T09:30:28.757Z,51.70
2016-07-20T09:31:26.024Z,51.70
2016-07-20T09:32:28.570Z,51.70
2016-07-20T09:33:22.803Z,51.70
2016-07-20T09:34:14.415Z,51.70
2016-07-20T09:35:15.645Z,51.70
2016-07-20T09:36:16.085Z,51.70
2016-07-20T09:37:15.722Z,51.60
2016-07-20T09:38:16.458Z,51.60
2016-07-20T09:39:15.165Z,51.70
2016-07-20T09:40:12.065Z,is
2016-07-20T09:41:14.706Z,51.50
2016-07-20T09:42:14.837Z,51.50
2016-07-20T09:43:14.770Z,51.60
2016-07-20T09:44:12.543Z,51.50
2016-07-20T09:45:15.071Z,51.50
2016-07-20T09:46:09.648Z,is
2016-07-20T09:47:11.174Z,is
2016-07-20T09:48:14.749Z,51.50
2016-07-20T09:49:12.153Z,51.50
2016-07-20T09:50:14.488Z,51.50
2016-07-20T09:51:12.923Z,51.50
2016-07-20T09:52:19.081Z,51.90
2016-07-20T09:53:12.029Z,51.40
2016-07-20T09:54:17.472Z,51.50
2016-07-20T09:55:19.626Z,51.40
2016-07-20T09:56:18.322Z,51.40
2016-07-20T09:57:20.373Z,51.40
2016-07-20T09:58:14.668Z,51.50
2016-07-20T09:59:19.363Z,51.50
2016-07-20T10:00:20.151Z,51.50
2016-07-20T10:01:14.632Z,51.40
2016-07-20T10:02:12.092Z,51.40
2016-07-20T10:03:19.163Z,is
2016-07-20T10:04:20.132Z,51.40
2016-07-20T10:05:19.120Z,51.30
2016-07-20T10:06:25.260Z,51.40
2016-07-20T10:07:24.093Z,51.30
2016-07-20T10:08:30.242Z,51.50
2016-07-20T10:09:32.766Z,51.30
2016-07-20T10:10:24.638Z,51.40
2016-07-20T10:11:33.678Z,51.30
2016-07-20T10:12:22.828Z,51.40
2016-07-20T10:13:34.777Z,51.30
2016-07-20T10:14:25.622Z,51.40
2016-07-20T10:15:16.234Z,is
2016-07-20T10:16:28.158Z,51.40
2016-07-20T10:17:21.679Z,51.40
2016-07-20T10:18:27.859Z,51.40
2016-07-20T10:19:18.428Z,51.30
2016-07-20T10:20:27.005Z,51.50
2016-07-20T10:21:27.940Z,is
2016-07-20T10:22:22.355Z,is
2016-07-20T10:23:27.559Z,51.40
2016-07-20T10:24:27.129Z,51.40
2016-07-20T10:25:20.802Z,51.40
2016-07-20T10:26:27.274Z,51.30
2016-07-20T10:27:20.040Z,51.30
2016-07-20T10:28:24.603Z,51.40
2016-07-20T10:29:23.155Z,51.20
2016-07-20T10:30:24.961Z,51.30
2016-07-20T10:31:40.450Z,51.30
2016-07-20T10:32:26.594Z,51.20
2016-07-20T10:33:16.444Z,51.30
2016-07-20T10:34:21.295Z,is
2016-07-20T10:35:27.476Z,51.30
2016-07-20T10:36:22.558Z,is
2016-07-20T10:37:28.725Z,51.20
2016-07-20T10:38:27.718Z,51.10
2016-07-20T10:39:15.391Z,51.10
2016-07-20T10:40:27.628Z,51.10
2016-07-20T10:41:28.405Z,51.10
2016-07-20T10:42:18.218Z,51.10
2016-07-20T10:43:27.822Z,51.10
2016-07-20T10:44:24.332Z,51.20
2016-07-20T10:45:25.317Z,51.50
2016-07-20T10:46:26.537Z,51.20
2016-07-20T10:47:27.820Z,51.20
2016-07-20T10:48:17.381Z,51.10
2016-07-20T10:49:14.918Z,51.10
2016-07-20T10:50:13.808Z,51.10
2016-07-20T10:51:21.733Z,50.60
2016-07-20T10:52:27.819Z,51.20
2016-07-20T10:53:29.358Z,51.10
2016-07-20T10:54:38.945Z,51.10
2016-07-20T10:55:29.341Z,51.00
2016-07-20T10:56:21.366Z,51.20
2016-07-20T10:57:20.832Z,51.20
2016-07-20T10:58:32.753Z,51.10
2016-07-20T10:59:21.623Z,51.10
2016-07-20T11:00:22.255Z,51.20
2016-07-20T11:01:33.803Z,51.10
2016-07-20T11:02:20.683Z,51.20
2016-07-20T11:03:28.180Z,51.20
2016-07-20T11:04:24.115Z,51.20
2016-07-20T11:05:38.980Z,51.20
2016-07-20T11:06:27.066Z,51.10
2016-07-20T11:07:23.752Z,51.30
2016-07-20T11:08:28.589Z,51.30
2016-07-20T11:09:28.859Z,51.10
2016-07-20T11:10:33.751Z,51.10
2016-07-20T11:11:26.792Z,51.20
2016-07-20T11:12:28.500Z,51.10
2016-07-20T11:13:19.806Z,51.20
2016-07-20T11:14:27.889Z,51.20
2016-07-20T11:15:28.464Z,51.30
2016-07-20T11:16:33.738Z,51.20
2016-07-20T11:17:28.770Z,51.30
2016-07-20T11:18:19.558Z,51.20
2016-07-20T11:19:27.040Z,51.30
2016-07-20T11:20:21.995Z,51.10
2016-07-20T11:21:32.726Z,51.20
2016-07-20T11:22:29.251Z,51.20
2016-07-20T11:23:28.734Z,51.20
2016-07-20T11:24:27.383Z,51.20
2016-07-20T11:25:20.853Z,51.30
2016-07-20T11:26:29.660Z,51.30
2016-07-20T11:27:25.808Z,51.20
2016-07-20T11:28:29.681Z,51.10
2016-07-20T11:29:25.491Z,51.00
2016-07-20T11:30:22.511Z,51.20
2016-07-20T11:31:25.549Z,51.10
2016-07-20T11:32:27.123Z,51.10
2016-07-20T11:33:26.805Z,51.20
2016-07-20T11:34:27.035Z,51.20
2016-07-20T11:35:27.652Z,51.20
2016-07-20T11:36:22.528Z,51.10
2016-07-20T11:37:12.071Z,51.20
2016-07-20T11:38:20.936Z,is
2016-07-20T11:39:27.054Z,51.20
2016-07-20T11:40:26.052Z,51.20
2016-07-20T11:41:27.493Z,51.00
2016-07-20T11:42:19.240Z,is
2016-07-20T11:43:26.404Z,51.30
2016-07-20T11:44:27.741Z,51.20
2016-07-20T11:45:29.854Z,51.70
2016-07-20T11:46:30.604Z,51.20
2016-07-20T11:47:36.063Z,51.20
2016-07-20T11:48:22.182Z,51.20
2016-07-20T11:49:20.443Z,51.10
2016-07-20T11:50:27.234Z,is
2016-07-20T11:51:26.104Z,51.30
2016-07-20T11:52:26.686Z,51.20
2016-07-20T11:53:27.375Z,51.10
2016-07-20T11:54:22.626Z,51.10
2016-07-20T11:55:22.458Z,51.10
2016-07-20T11:56:23.402Z,51.10
2016-07-20T11:57:27.059Z,51.10
2016-07-20T11:58:23.477Z,51.20
2016-07-20T11:59:28.332Z,51.10
2016-07-20T12:00:29.429Z,51.10
2016-07-20T12:01:20.551Z,51.10
2016-07-20T12:02:28.279Z,51.10
2016-07-20T12:03:23.335Z,51.00
2016-07-20T12:04:22.436Z,51.00
2016-07-20T12:05:27.097Z,51.20
2016-07-20T12:06:14.640Z,51.10
2016-07-20T12:07:28.058Z,50.90
2016-07-20T12:08:28.505Z,50.80
2016-07-20T12:09:28.560Z,51.10
2016-07-20T12:10:27.063Z,51.10
2016-07-20T12:11:29.532Z,51.10
2016-07-20T12:12:20.589Z,51.00
2016-07-20T12:13:20.179Z,is
2016-07-20T12:14:28.087Z,51.00
2016-07-20T12:15:31.739Z,50.90
2016-07-20T12:16:22.619Z,50.90
2016-07-20T12:17:23.961Z,50.90
2016-07-20T12:18:28.034Z,50.90
2016-07-20T12:19:22.566Z,51.00
2016-07-20T12:20:27.225Z,51.00
2016-07-20T12:21:22.903Z,is
2016-07-20T12:22:28.914Z,51.10
2016-07-20T12:23:29.314Z,50.70
2016-07-20T12:24:31.410Z,50.80
2016-07-20T12:25:34.411Z,50.90
2016-07-20T12:26:27.737Z,50.90
2016-07-20T12:27:22.176Z,50.90
2016-07-20T12:28:28.523Z,51.30
2016-07-20T12:29:13.500Z,50.80
2016-07-20T12:30:15.460Z,50.90
2016-07-20T12:31:17.092Z,50.90
2016-07-20T12:32:16.262Z,50.90
2016-07-20T12:33:17.685Z,50.90
2016-07-20T12:34:15.626Z,50.90
2016-07-20T12:35:16.008Z,50.70
2016-07-20T12:36:16.636Z,50.80
2016-07-20T12:37:14.703Z,50.90
2016-07-20T12:38:16.927Z,50.80
2016-07-20T12:39:15.920Z,50.80
2016-07-20T12:40:16.935Z,50.70
2016-07-20T12:41:15.255Z,50.70
2016-07-20T12:42:15.570Z,50.80
2016-07-20T12:43:17.293Z,50.70
2016-07-20T12:44:15.144Z,50.70
2016-07-20T12:45:14.749Z,51.20
2016-07-20T12:46:14.855Z,50.60
2016-07-20T12:47:15.062Z,50.70
2016-07-20T12:48:15.766Z,50.70
2016-07-20T12:49:12.235Z,50.60
2016-07-20T12:50:15.578Z,50.60
2016-07-20T12:51:12.140Z,50.60
2016-07-20T12:52:16.311Z,50.60
2016-07-20T12:53:19.045Z,50.60
2016-07-20T12:54:15.360Z,50.60
2016-07-20T12:55:17.795Z,50.60
2016-07-20T12:56:12.746Z,50.50
2016-07-20T12:57:10.403Z,is